createdAt,value
2018-02-24T00:03:32.814Z,101694.03
2018-02-24T00:08:27.098Z,101695.27
2018-02-24T00:13:21.401Z,101699.13
2018-02-24T00:18:15.822Z,101683.53
2018-02-24T00:23:10.103Z,101678.76
2018-02-24T00:28:04.396Z,101681.34
2018-02-24T00:32:58.682Z,101691.67
2018-02-24T00:37:53.748Z,101696.37
2018-02-24T00:42:48.231Z,101704.52
2018-02-24T00:47:42.598Z,101698.91
2018-02-24T00:52:37.903Z,101710.11
2018-02-24T00:57:32.202Z,101704.42
2018-02-24T01:02:26.382Z,101705.64
2018-02-24T01:07:20.691Z,101703.02
2018-02-24T01:12:14.812Z,101699.52
2018-02-24T01:17:09.929Z,101706.84
2018-02-24T01:22:04.522Z,101696.47
2018-02-24T01:26:58.855Z,101699.03
2018-02-24T01:31:54.253Z,101706.78
2018-02-24T01:36:48.592Z,101717.09
2018-02-24T01:41:43.208Z,101717.48
2018-02-24T01:46:37.492Z,101725.22
2018-02-24T01:51:32.758Z,101726.50
2018-02-24T01:56:27.355Z,101724.75
2018-02-24T02:01:21.786Z,101726.45
2018-02-24T02:06:16.060Z,101715.63
2018-02-24T02:11:10.524Z,101713.41
2018-02-24T02:16:04.858Z,101721.12
2018-02-24T02:20:59.156Z,101710.26
2018-02-24T02:25:53.681Z,101707.22
2018-02-24T02:30:48.183Z,101712.80
2018-02-24T02:35:42.481Z,101711.91
2018-02-24T02:40:36.791Z,101718.72
2018-02-24T02:45:31.315Z,101720.38
2018-02-24T02:50:25.621Z,101725.51
2018-02-24T02:55:19.920Z,101716.86
2018-02-24T03:00:14.225Z,101715.53
2018-02-24T03:05:09.290Z,101723.67
2018-02-24T03:10:03.619Z,101730.12
2018-02-24T03:14:57.904Z,101727.50
2018-02-24T03:19:52.229Z,101721.50
2018-02-24T03:24:46.984Z,101723.22
2018-02-24T03:29:42.031Z,101730.09
2018-02-24T03:34:36.330Z,101730.05
2018-02-24T03:39:30.947Z,101728.31
2018-02-24T03:44:25.221Z,101735.72
2018-02-24T03:49:20.290Z,101738.69
2018-02-24T03:54:14.592Z,101736.55
2018-02-24T03:59:09.218Z,101738.24
2018-02-24T04:04:03.552Z,101744.65
2018-02-24T04:08:58.732Z,101751.05
2018-02-24T04:13:53.039Z,101744.14
2018-02-24T04:18:47.351Z,101751.56
2018-02-24T04:23:42.418Z,101758.45
2018-02-24T04:28:36.726Z,101762.33
2018-02-24T04:33:31.473Z,101767.08
2018-02-24T04:38:25.782Z,101773.52
2018-02-24T04:43:20.892Z,101767.86
2018-02-24T04:48:15.209Z,101761.30
2018-02-24T04:53:10.392Z,101775.91
2018-02-24T04:58:04.689Z,101775.95
2018-02-24T05:02:58.987Z,101770.36
2018-02-24T05:07:53.280Z,101769.55
2018-02-24T05:12:47.584Z,101762.64
2018-02-24T05:17:41.879Z,101766.52
2018-02-24T05:22:36.172Z,101769.94
2018-02-24T05:27:30.473Z,101772.99
2018-02-24T05:32:24.546Z,101783.34
2018-02-24T05:37:20.118Z,101788.52
2018-02-24T05:42:14.393Z,101786.36
2018-02-24T05:47:08.714Z,101782.91
2018-02-24T05:52:03.090Z,101788.53
2018-02-24T05:56:57.530Z,101788.18
2018-02-24T06:01:51.650Z,101786.88
2018-02-24T06:06:46.222Z,101786.91
2018-02-24T06:11:40.774Z,101792.53
2018-02-24T06:16:35.097Z,101804.61
2018-02-24T06:21:29.799Z,101810.95
2018-02-24T06:26:23.925Z,101813.86
2018-02-24T06:31:18.240Z,101806.39
2018-02-24T06:36:12.430Z,101811.52
2018-02-24T06:41:06.861Z,101826.14
2018-02-24T06:46:01.167Z,101832.14
2018-02-24T06:50:55.475Z,101832.61
2018-02-24T06:55:49.789Z,101835.69
2018-02-24T07:00:44.966Z,101842.70
2018-02-24T07:05:40.193Z,101841.93
2018-02-24T07:10:34.650Z,101843.78
2018-02-24T07:15:29.738Z,101844.41
2018-02-24T07:20:24.024Z,101854.53
2018-02-24T07:25:18.614Z,101851.77
2018-02-24T07:30:13.023Z,101849.45
2018-02-24T07:35:07.600Z,101848.17
2018-02-24T07:40:01.968Z,101852.98
2018-02-24T07:44:56.287Z,101854.59
2018-02-24T07:49:51.367Z,101847.16
2018-02-24T07:54:45.857Z,101848.42
2018-02-24T07:59:40.174Z,101843.25
2018-02-24T08:04:34.650Z,101845.79
2018-02-24T08:09:28.930Z,101848.13
2018-02-24T08:14:23.461Z,101847.88
2018-02-24T08:19:17.777Z,101846.68
2018-02-24T08:24:12.403Z,101850.05
2018-02-24T08:29:08.132Z,101846.98
2018-02-24T08:34:03.599Z,101847.52
2018-02-24T08:38:59.245Z,101841.75
2018-02-24T08:43:53.560Z,101836.55
2018-02-24T08:48:47.949Z,101840.56
2018-02-24T08:53:42.375Z,101845.41
2018-02-24T08:58:36.680Z,101839.48
2018-02-24T09:03:32.214Z,101848.93
2018-02-24T09:08:26.578Z,101840.75
2018-02-24T09:13:21.487Z,101846.55
2018-02-24T09:18:16.081Z,101858.31
2018-02-24T09:23:11.345Z,101859.09
2018-02-24T09:28:06.062Z,101856.19
2018-02-24T09:33:00.369Z,101839.06
2018-02-24T09:37:54.681Z,101845.58
2018-02-24T09:42:49.027Z,101843.03
2018-02-24T09:47:43.360Z,101854.39
2018-02-24T09:52:37.659Z,101854.82
2018-02-24T09:57:32.017Z,101865.09
2018-02-24T10:02:27.379Z,101862.73
2018-02-24T10:07:21.887Z,101867.51
2018-02-24T10:12:16.183Z,101874.16
2018-02-24T10:17:10.623Z,101880.52
2018-02-24T10:22:04.983Z,101897.97
2018-02-24T10:26:59.487Z,101901.97
2018-02-24T10:31:53.787Z,101901.78
2018-02-24T10:36:48.526Z,101893.66
2018-02-24T10:41:42.875Z,101899.91
2018-02-24T10:46:38.083Z,101913.46
2018-02-24T10:51:32.369Z,101903.06
2018-02-24T10:56:26.666Z,101897.86
2018-02-24T11:01:21.038Z,101894.83
2018-02-24T11:06:15.448Z,101896.16
2018-02-24T11:11:09.882Z,101891.30
2018-02-24T11:16:04.745Z,101880.20
2018-02-24T11:20:59.029Z,101888.32
2018-02-24T11:25:55.039Z,101878.67
2018-02-24T11:30:49.656Z,101884.76
2018-02-24T11:35:45.144Z,101899.98
2018-02-24T11:40:39.540Z,101887.34
2018-02-24T11:45:34.081Z,101886.88
2018-02-24T11:50:28.541Z,101870.25
2018-02-24T11:55:23.650Z,101884.61
2018-02-24T12:00:19.341Z,101881.59
2018-02-24T12:05:13.806Z,101871.40
2018-02-24T12:10:08.794Z,101868.70
2018-02-24T12:15:03.339Z,101867.80
2018-02-24T12:19:57.667Z,101861.11
2018-02-24T12:24:51.960Z,101856.63
2018-02-24T12:29:46.534Z,101854.34
2018-02-24T12:34:41.771Z,101863.83
2018-02-24T12:39:35.899Z,101857.22
2018-02-24T12:44:30.223Z,101853.66
2018-02-24T12:49:24.498Z,101838.67
2018-02-24T12:54:18.914Z,101849.27
2018-02-24T12:59:13.205Z,101849.09
2018-02-24T13:04:07.567Z,101829.31
2018-02-24T13:09:02.854Z,101841.50
2018-02-24T13:13:57.191Z,101827.51
2018-02-24T13:18:51.833Z,101833.42
2018-02-24T13:23:46.654Z,101830.95
2018-02-24T13:28:41.042Z,101837.27
2018-02-24T13:33:35.225Z,101831.80
2018-02-24T13:38:29.375Z,101833.80
2018-02-24T13:43:24.161Z,101840.52
2018-02-24T13:48:18.615Z,101838.28
2018-02-24T13:53:13.173Z,101849.28
2018-02-24T13:58:07.447Z,101841.37
2018-02-24T14:03:01.837Z,101843.34
2018-02-24T14:07:56.076Z,101844.49
2018-02-24T14:12:50.167Z,101834.92
2018-02-24T14:17:44.667Z,101842.06
2018-02-24T14:22:39.147Z,101839.65
2018-02-24T14:27:33.507Z,101854.66
2018-02-24T14:32:27.792Z,101856.09
2018-02-24T14:37:22.359Z,101861.25
2018-02-24T14:42:17.455Z,101883.57
2018-02-24T14:47:11.846Z,101860.47
2018-02-24T14:52:06.119Z,101846.52
2018-02-24T14:57:00.414Z,101862.82
2018-02-24T15:01:54.714Z,101872.44
2018-02-24T15:06:48.810Z,101863.88
2018-02-24T15:11:43.138Z,101871.12
2018-02-24T15:16:37.570Z,101882.32
2018-02-24T15:21:31.747Z,101891.31
2018-02-24T15:26:26.052Z,101884.57
2018-02-24T15:31:21.185Z,101872.95
2018-02-24T15:36:16.042Z,101889.30
2018-02-24T15:41:10.324Z,101890.41
2018-02-24T15:46:04.755Z,101890.08
2018-02-24T15:50:59.048Z,101908.97
2018-02-24T15:55:53.140Z,101909.94
2018-02-24T16:00:47.411Z,101922.28
2018-02-24T16:05:42.671Z,101928.59
2018-02-24T16:10:38.998Z,101919.61
2018-02-24T16:15:33.294Z,101930.20
2018-02-24T16:20:28.813Z,101930.31
2018-02-24T16:25:23.759Z,101941.34
2018-02-24T16:30:18.065Z,101943.56
2018-02-24T16:35:12.374Z,101956.70
2018-02-24T16:40:06.876Z,101956.33
2018-02-24T16:45:01.198Z,101968.09
2018-02-24T16:49:55.609Z,101967.70
2018-02-24T16:54:50.162Z,101976.45
2018-02-24T16:59:44.468Z,101984.30
2018-02-24T17:04:38.897Z,101986.05
2018-02-24T17:09:33.355Z,101987.38
2018-02-24T17:14:28.454Z,102005.20
2018-02-24T17:19:23.520Z,102004.34
2018-02-24T17:24:17.927Z,102008.25
2018-02-24T17:29:12.201Z,102004.34
2018-02-24T17:34:07.615Z,102009.53
2018-02-24T17:39:02.677Z,102019.56
2018-02-24T17:43:57.193Z,102020.84
2018-02-24T17:48:51.506Z,102022.98
2018-02-24T17:53:45.965Z,102032.10
2018-02-24T17:58:41.015Z,102026.02
2018-02-24T18:03:35.132Z,102032.06
2018-02-24T18:08:29.657Z,102033.35
2018-02-24T18:13:24.743Z,102036.83
2018-02-24T18:18:19.042Z,102045.95
2018-02-24T18:23:13.371Z,102040.70
2018-02-24T18:28:07.958Z,102044.19
2018-02-24T18:33:02.266Z,102051.11
2018-02-24T18:37:56.570Z,102049.79
2018-02-24T18:42:50.877Z,102051.07
2018-02-24T18:47:45.920Z,102055.84
2018-02-24T18:52:40.978Z,102050.64
2018-02-24T18:57:35.267Z,102048.00
2018-02-24T19:02:29.791Z,102047.56
2018-02-24T19:07:24.223Z,102040.61
2018-02-24T19:12:19.301Z,102049.73
2018-02-24T19:17:13.429Z,102053.64
2018-02-24T19:22:07.933Z,102062.30
2018-02-24T19:27:02.417Z,102065.34
2018-02-24T19:31:56.682Z,102072.23
2018-02-24T19:36:51.751Z,102071.77
2018-02-24T19:41:46.044Z,102072.23
2018-02-24T19:46:40.346Z,102080.87
2018-02-24T19:51:34.851Z,102075.22
2018-02-24T19:56:29.113Z,102080.46
2018-02-24T20:01:24.160Z,102083.98
2018-02-24T20:06:18.488Z,102078.75
2018-02-24T20:11:12.799Z,102075.20
2018-02-24T20:16:07.366Z,102084.75
2018-02-24T20:21:02.437Z,102086.87
2018-02-24T20:25:57.110Z,102082.06
2018-02-24T20:31:10.205Z,102081.63
2018-02-24T20:36:16.971Z,102090.26
2018-02-24T20:41:11.250Z,102095.00
2018-02-24T20:46:05.648Z,102088.06
2018-02-24T20:50:59.758Z,102087.57
2018-02-24T20:55:53.973Z,102111.89
2018-02-24T21:00:48.088Z,102107.05
2018-02-24T21:05:43.369Z,102117.88
2018-02-24T21:10:37.667Z,102107.02
2018-02-24T21:15:31.982Z,102112.63
2018-02-24T21:20:26.410Z,102123.81
2018-02-24T21:25:21.478Z,102122.50
2018-02-24T21:30:15.882Z,102118.11
2018-02-24T21:35:10.029Z,102126.34
2018-02-24T21:40:05.473Z,102135.41
2018-02-24T21:45:00.665Z,102132.31
2018-02-24T21:49:55.231Z,102127.91
2018-02-24T21:54:49.743Z,102117.45
2018-02-24T21:59:44.068Z,102129.12
2018-02-24T22:04:38.464Z,102129.09
2018-02-24T22:09:34.595Z,102133.80
2018-02-24T22:14:29.939Z,102138.05
2018-02-24T22:19:24.443Z,102138.03
2018-02-24T22:24:18.925Z,102143.13
2018-02-24T22:29:13.539Z,102141.78
2018-02-24T22:34:07.911Z,102154.28
2018-02-24T22:39:02.261Z,102158.58
2018-02-24T22:43:56.954Z,102170.23
2018-02-24T22:48:56.915Z,102175.41
2018-02-24T22:53:51.463Z,102177.97
2018-02-24T22:58:46.031Z,102179.61
2018-02-24T23:03:40.355Z,102183.84
2018-02-24T23:08:35.735Z,102190.78
2018-02-24T23:13:30.119Z,102183.81
2018-02-24T23:18:24.495Z,102187.22
2018-02-24T23:23:19.559Z,102186.70
2018-02-24T23:28:14.190Z,102185.78
2018-02-24T23:33:09.821Z,102185.28
2018-02-24T23:38:04.159Z,102171.73
2018-02-24T23:42:59.531Z,102170.83
2018-02-24T23:47:53.776Z,102184.25
2018-02-24T23:52:48.019Z,102183.31
2018-02-24T23:57:43.246Z,102174.62
